Switzerland, Florida
Current Conditions -  °F | °C
As of 4:53 AM on Saturday 29 Nov 2014 (Local Time) from KNIP Reporting Station
Clear Clear  
Wind Chill: 43°   Ceiling: Unl
Heat Index: 47°   Visibility: 9mi
Dew Point: 39°   Wind: 9mph
Humidity: 74%   Direction: 340°NNW
Pressure: 30.31"   Gusts: NA
Location:  30.0735°N, 81.5808°W
Report Text: KNIP 290953Z 34008KT 9SM CLR 08/04 A3031 RMK AO2 SLP258 T00830039 $
Loading
Personal Weather Stations






























Interactive Weather Map New forecast layout! Learn more

10-Day Weather Forecast

Advertisements
Track Severe Weather on mobile